createdAt,value
2023-03-23T00:03:21.946Z,204.01
2023-03-23T00:07:22.146Z,202.40
2023-03-23T00:11:22.743Z,185.27
2023-03-23T00:15:22.522Z,192.55
2023-03-23T00:19:23.275Z,193.90
2023-03-23T00:23:22.410Z,193.58
2023-03-23T00:27:22.518Z,191.13
2023-03-23T00:31:22.363Z,191.20
2023-03-23T00:35:22.380Z,187.65
2023-03-23T00:39:22.520Z,192.90
2023-03-23T00:43:22.727Z,190.27
2023-03-23T00:47:23.284Z,189.02
2023-03-23T00:51:23.277Z,181.18
2023-03-23T00:55:22.950Z,180.14
2023-03-23T00:59:23.264Z,181.96
2023-03-23T01:03:23.062Z,190.93
2023-03-23T01:07:23.084Z,189.08
2023-03-23T01:11:23.062Z,184.10
2023-03-23T01:15:23.271Z,178.28
2023-03-23T01:19:23.082Z,173.52
2023-03-23T01:23:23.095Z,172.99
2023-03-23T01:27:23.302Z,171.49
2023-03-23T01:31:23.281Z,167.54
2023-03-23T01:35:23.174Z,169.97
2023-03-23T01:39:23.286Z,175.96
2023-03-23T01:43:23.389Z,180.57
2023-03-23T01:47:23.812Z,175.32
2023-03-23T01:51:28.141Z,168.50
2023-03-23T01:55:24.382Z,172.01
2023-03-23T01:59:23.582Z,185.61
2023-03-23T02:03:23.722Z,211.65
2023-03-23T02:07:23.807Z,214.02
2023-03-23T02:11:24.383Z,200.39
2023-03-23T02:15:24.174Z,186.81
2023-03-23T02:19:24.804Z,179.42
2023-03-23T02:23:24.449Z,177.03
2023-03-23T02:27:24.793Z,172.32
2023-03-23T02:31:25.274Z,184.82
2023-03-23T02:35:24.938Z,183.26
2023-03-23T02:39:24.836Z,186.23
2023-03-23T02:43:24.865Z,185.65
2023-03-23T02:47:25.925Z,189.94
2023-03-23T02:51:24.811Z,192.78
2023-03-23T02:55:24.977Z,194.69
2023-03-23T02:59:24.933Z,194.85
2023-03-23T03:03:25.306Z,193.15
2023-03-23T03:07:24.808Z,184.82
2023-03-23T03:11:24.730Z,181.71
2023-03-23T03:15:24.834Z,187.47
2023-03-23T03:19:24.702Z,185.98
2023-03-23T03:23:24.828Z,193.63
2023-03-23T03:27:24.860Z,198.26
2023-03-23T03:31:24.561Z,201.61
2023-03-23T03:35:24.533Z,204.27
2023-03-23T03:39:24.537Z,203.13
2023-03-23T03:43:24.470Z,198.99
2023-03-23T03:47:24.861Z,178.57
2023-03-23T03:51:25.364Z,195.85
2023-03-23T03:55:24.828Z,201.20
2023-03-23T03:59:24.493Z,201.21
2023-03-23T04:03:24.834Z,205.61
2023-03-23T04:07:24.872Z,207.16
2023-03-23T04:11:32.433Z,211.18
2023-03-23T04:15:25.418Z,204.75
2023-03-23T04:19:24.847Z,210.18
2023-03-23T04:23:24.351Z,215.49
2023-03-23T04:27:24.305Z,212.54
2023-03-23T04:31:24.280Z,171.24
2023-03-23T04:35:24.310Z,159.88
2023-03-23T04:39:24.347Z,178.22
2023-03-23T04:43:24.550Z,209.96
2023-03-23T04:47:24.618Z,234.88
2023-03-23T04:51:24.617Z,237.29
2023-03-23T04:55:24.692Z,233.72
2023-03-23T04:59:24.785Z,230.46
2023-03-23T05:03:24.834Z,229.04
2023-03-23T05:07:24.918Z,229.63
2023-03-23T05:11:25.005Z,229.68
2023-03-23T05:15:25.131Z,222.24
2023-03-23T05:19:25.107Z,228.53
2023-03-23T05:23:25.079Z,232.75
2023-03-23T05:27:25.050Z,233.94
2023-03-23T05:31:24.975Z,233.94
2023-03-23T05:35:25.063Z,237.14
2023-03-23T05:39:25.027Z,234.10
2023-03-23T05:43:24.889Z,240.33
2023-03-23T05:47:24.889Z,229.80
2023-03-23T05:51:24.812Z,230.59
2023-03-23T05:55:24.777Z,236.48
2023-03-23T05:59:24.768Z,245.98
2023-03-23T06:03:24.863Z,249.46
2023-03-23T06:07:25.014Z,241.43
2023-03-23T06:11:25.115Z,236.70
2023-03-23T06:15:25.302Z,240.62
2023-03-23T06:19:25.418Z,243.35
2023-03-23T06:23:25.541Z,234.50
2023-03-23T06:27:25.615Z,242.74
2023-03-23T06:31:25.710Z,205.68
2023-03-23T06:35:25.768Z,231.22
2023-03-23T06:39:25.824Z,218.54
2023-03-23T06:43:26.016Z,205.70
2023-03-23T06:47:26.073Z,201.62
2023-03-23T06:51:26.081Z,232.56
2023-03-23T06:55:26.117Z,237.31
2023-03-23T06:59:26.187Z,233.55
2023-03-23T07:03:26.372Z,232.59
2023-03-23T07:07:26.408Z,237.99
2023-03-23T07:11:26.581Z,233.32
2023-03-23T07:15:26.592Z,217.54
2023-03-23T07:19:26.537Z,200.60
2023-03-23T07:25:33.920Z,25.00
2023-03-23T07:29:33.812Z,33.78
2023-03-23T07:33:34.002Z,0.00
2023-03-23T07:37:33.914Z,0.00
2023-03-23T07:41:33.753Z,38.95
2023-03-23T07:45:33.667Z,106.27
2023-03-23T07:49:33.733Z,172.65
2023-03-23T07:53:33.567Z,231.74
2023-03-23T07:57:33.625Z,244.55
2023-03-23T08:01:33.769Z,214.94
2023-03-23T08:05:33.528Z,207.51
2023-03-23T08:09:33.479Z,241.35
2023-03-23T08:13:33.512Z,209.97
2023-03-23T08:17:33.435Z,153.56
2023-03-23T08:21:33.407Z,195.08
2023-03-23T08:25:33.388Z,60.02
2023-03-23T08:29:33.323Z,54.53
2023-03-23T08:33:33.294Z,192.45
2023-03-23T08:37:33.223Z,90.39
2023-03-23T08:41:33.176Z,55.13
2023-03-23T08:45:33.298Z,48.45
2023-03-23T08:49:33.294Z,49.66
2023-03-23T08:53:33.138Z,72.38
2023-03-23T08:57:33.138Z,96.72
2023-03-23T09:01:33.249Z,133.41
2023-03-23T09:05:33.412Z,21.72
2023-03-23T09:09:33.487Z,143.66
2023-03-23T09:13:33.618Z,118.82
2023-03-23T09:17:33.698Z,120.35
2023-03-23T09:21:33.615Z,22.78
2023-03-23T09:25:33.644Z,63.42
2023-03-23T09:29:33.849Z,61.25
2023-03-23T09:33:33.873Z,65.82
2023-03-23T09:37:33.866Z,150.75
2023-03-23T09:41:33.806Z,101.79
2023-03-23T09:45:33.845Z,80.01
2023-03-23T09:49:33.797Z,107.23
2023-03-23T09:53:34.738Z,69.84
2023-03-23T09:57:33.655Z,44.76
2023-03-23T10:01:33.624Z,46.97
2023-03-23T10:05:33.612Z,21.77
2023-03-23T10:09:33.686Z,83.42
2023-03-23T10:13:33.784Z,51.17
2023-03-23T10:17:33.723Z,103.80
2023-03-23T10:21:33.813Z,71.42
2023-03-23T10:25:33.996Z,42.37
2023-03-23T10:29:34.095Z,0.00
2023-03-23T10:33:34.396Z,60.62
2023-03-23T10:37:34.415Z,91.55
2023-03-23T10:41:34.208Z,74.55
2023-03-23T10:45:34.248Z,100.14
2023-03-23T10:49:34.262Z,141.58
2023-03-23T10:53:34.466Z,134.79
2023-03-23T10:57:34.696Z,122.66
2023-03-23T11:01:34.750Z,101.82
2023-03-23T11:05:34.843Z,156.33
2023-03-23T11:09:34.946Z,127.00
2023-03-23T11:13:34.827Z,88.37
2023-03-23T11:17:34.851Z,83.94
2023-03-23T11:21:34.963Z,15.68
2023-03-23T11:25:35.143Z,27.95
2023-03-23T11:29:35.269Z,47.12
2023-03-23T11:33:35.611Z,0.00
2023-03-23T11:37:35.356Z,11.12
2023-03-23T11:41:35.644Z,28.08
2023-03-23T11:45:35.637Z,45.93
2023-03-23T11:49:35.507Z,83.27
2023-03-23T11:53:35.529Z,76.67
2023-03-23T11:57:35.521Z,59.86
2023-03-23T12:01:35.542Z,48.53
2023-03-23T12:05:35.516Z,78.77
2023-03-23T12:09:35.488Z,107.97
2023-03-23T12:13:35.506Z,79.79
2023-03-23T12:17:35.469Z,24.14
2023-03-23T12:21:35.473Z,43.92
2023-03-23T12:25:35.310Z,74.81
2023-03-23T12:29:35.275Z,47.25
2023-03-23T12:33:35.231Z,70.68
2023-03-23T12:37:35.219Z,61.13
2023-03-23T12:41:35.192Z,60.70
2023-03-23T12:45:35.101Z,69.52
2023-03-23T12:49:35.166Z,36.88
2023-03-23T12:53:35.079Z,57.41
2023-03-23T12:57:35.052Z,89.61
2023-03-23T13:05:45.102Z,25.00
2023-03-23T13:09:45.035Z,0.00
2023-03-23T13:13:48.987Z,80.02
2023-03-23T13:17:45.979Z,33.72
2023-03-23T13:21:51.159Z,7.70
2023-03-23T13:25:45.952Z,0.00
2023-03-23T13:29:44.900Z,0.00
2023-03-23T13:33:45.021Z,0.00
2023-03-23T13:37:44.821Z,56.04
2023-03-23T13:41:44.829Z,75.46
2023-03-23T13:45:45.278Z,125.32
2023-03-23T13:49:44.981Z,75.78
2023-03-23T13:53:44.948Z,25.38
2023-03-23T13:57:59.160Z,51.16
2023-03-23T14:01:54.875Z,44.50
2023-03-23T14:05:44.941Z,0.00
2023-03-23T14:09:44.803Z,3.75
2023-03-23T14:13:44.771Z,82.65
2023-03-23T14:17:44.732Z,58.68
2023-03-23T14:21:44.721Z,27.41
2023-03-23T14:25:44.973Z,82.46
2023-03-23T14:29:44.614Z,99.77
2023-03-23T14:33:44.604Z,122.06
2023-03-23T14:37:44.523Z,126.35
2023-03-23T14:41:44.513Z,173.05
2023-03-23T14:45:44.635Z,131.65
2023-03-23T14:49:44.451Z,173.76
2023-03-23T14:53:44.374Z,150.05
2023-03-23T14:57:44.393Z,111.88
2023-03-23T15:01:44.275Z,48.57
2023-03-23T15:05:45.101Z,122.23
2023-03-23T15:09:44.254Z,163.56
2023-03-23T15:13:44.201Z,101.44
2023-03-23T15:17:44.386Z,155.76
2023-03-23T15:21:44.206Z,121.15
2023-03-23T15:25:44.526Z,160.74
2023-03-23T15:29:44.314Z,231.14
2023-03-23T15:33:44.399Z,215.98
2023-03-23T15:37:44.312Z,215.48
2023-03-23T15:41:56.440Z,214.57
2023-03-23T15:45:55.955Z,222.52
2023-03-23T15:49:44.421Z,189.11
2023-03-23T15:53:44.433Z,150.00
2023-03-23T16:01:54.670Z,25.00
2023-03-23T16:05:54.623Z,58.87
2023-03-23T16:09:54.686Z,165.68
2023-03-23T16:13:54.624Z,199.10
2023-03-23T16:17:54.235Z,244.81
2023-03-23T16:21:54.698Z,206.72
2023-03-23T16:25:54.296Z,171.33
2023-03-23T16:30:03.901Z,188.80
2023-03-23T16:33:55.195Z,205.15
2023-03-23T16:38:07.086Z,183.43
2023-03-23T16:41:55.636Z,190.25
2023-03-23T16:45:54.249Z,160.58
2023-03-23T16:49:54.650Z,177.81
2023-03-23T16:53:54.644Z,139.04
2023-03-23T16:58:05.233Z,153.39
2023-03-23T17:01:55.755Z,219.58
2023-03-23T17:05:54.349Z,175.95
2023-03-23T17:09:54.604Z,189.23
2023-03-23T17:13:54.910Z,247.76
2023-03-23T17:17:55.464Z,219.32
2023-03-23T17:21:55.192Z,258.83
2023-03-23T17:25:55.361Z,250.00
2023-03-23T17:29:55.759Z,243.60
2023-03-23T17:33:55.568Z,231.90
2023-03-23T17:37:55.625Z,236.06
2023-03-23T17:41:56.217Z,208.85
2023-03-23T17:45:55.797Z,218.53
2023-03-23T17:49:55.682Z,211.46
2023-03-23T17:53:55.716Z,248.05
2023-03-23T17:57:56.133Z,257.80
2023-03-23T18:01:55.830Z,255.18
2023-03-23T18:05:56.314Z,211.68
2023-03-23T18:09:56.030Z,201.58
2023-03-23T18:13:56.001Z,186.10
2023-03-23T18:21:45.993Z,25.00
2023-03-23T18:25:45.506Z,0.00
2023-03-23T18:29:45.136Z,0.00
2023-03-23T18:33:45.075Z,105.42
2023-03-23T18:37:45.423Z,281.25
2023-03-23T18:41:44.967Z,185.38
2023-03-23T18:45:45.882Z,259.85
2023-03-23T18:49:44.915Z,228.76
2023-03-23T18:53:44.926Z,226.81
2023-03-23T18:57:44.907Z,269.57
2023-03-23T19:01:45.038Z,220.94
2023-03-23T19:05:45.126Z,211.79
2023-03-23T19:09:44.798Z,251.72
2023-03-23T19:13:54.298Z,213.33
2023-03-23T19:17:46.086Z,197.80
2023-03-23T19:21:47.067Z,202.11
2023-03-23T19:25:45.013Z,213.82
2023-03-23T19:29:45.462Z,223.33
2023-03-23T19:33:44.934Z,230.19
2023-03-23T19:37:45.622Z,247.29
2023-03-23T19:41:45.892Z,150.69
2023-03-23T19:45:45.321Z,189.51
2023-03-23T19:49:45.447Z,213.09
2023-03-23T19:53:45.180Z,209.53
2023-03-23T19:57:45.416Z,190.88
2023-03-23T20:01:45.343Z,195.98
2023-03-23T20:05:45.761Z,249.53
2023-03-23T20:09:45.910Z,249.58
2023-03-23T20:13:45.607Z,190.25
2023-03-23T20:17:46.196Z,160.63
2023-03-23T20:21:45.870Z,157.21
2023-03-23T20:25:46.650Z,188.37
2023-03-23T20:29:46.151Z,214.00
2023-03-23T20:33:46.588Z,226.85
2023-03-23T20:37:47.325Z,213.32
2023-03-23T20:41:46.447Z,215.46
2023-03-23T20:45:47.359Z,243.08
2023-03-23T20:49:53.755Z,186.17
2023-03-23T20:53:47.958Z,189.85
2023-03-23T20:57:47.092Z,214.89
2023-03-23T21:01:46.904Z,210.22
2023-03-23T21:05:46.896Z,185.62
2023-03-23T21:09:46.852Z,199.68
2023-03-23T21:13:46.788Z,203.88
2023-03-23T21:17:47.065Z,171.79
2023-03-23T21:21:56.653Z,164.31
2023-03-23T21:25:47.982Z,154.05
2023-03-23T21:29:46.656Z,159.54
2023-03-23T21:33:46.997Z,153.89
2023-03-23T21:37:46.509Z,181.91
2023-03-23T21:41:46.977Z,215.77
2023-03-23T21:45:46.945Z,209.18
2023-03-23T21:49:46.510Z,208.79
2023-03-23T21:53:46.577Z,166.14
2023-03-23T21:57:46.454Z,135.26
2023-03-23T22:01:46.517Z,115.46
2023-03-23T22:05:46.457Z,134.57
2023-03-23T22:09:46.528Z,167.21
2023-03-23T22:13:46.961Z,188.40
2023-03-23T22:17:46.689Z,187.27
2023-03-23T22:21:46.859Z,213.55
2023-03-23T22:25:46.809Z,220.15
2023-03-23T22:29:46.978Z,163.99
2023-03-23T22:33:46.929Z,155.68
2023-03-23T22:37:47.092Z,128.78
2023-03-23T22:41:47.169Z,157.31
2023-03-23T22:45:47.548Z,154.42
2023-03-23T22:49:47.490Z,128.92
2023-03-23T22:53:47.556Z,143.20
2023-03-23T22:57:47.984Z,151.83
2023-03-23T23:01:47.904Z,157.31
2023-03-23T23:05:48.217Z,160.63
2023-03-23T23:09:48.373Z,162.97
2023-03-23T23:13:48.637Z,162.37
2023-03-23T23:17:48.632Z,174.24
2023-03-23T23:21:48.470Z,157.29
2023-03-23T23:25:48.776Z,155.81
2023-03-23T23:29:48.367Z,125.39
2023-03-23T23:33:48.350Z,119.27
2023-03-23T23:37:48.440Z,110.81
2023-03-23T23:41:48.296Z,97.56
2023-03-23T23:45:48.292Z,88.22
2023-03-23T23:49:48.221Z,88.61
2023-03-23T23:53:48.386Z,88.89
2023-03-23T23:57:48.601Z,75.58
